Time;durP1;ratioP1;P1;durP2;ratioP2;P2;SDS_P1;SDS_P2;PMS_P1;PMS_P2;Temp;Humidity;BMP_temperature;BMP_pressure;BME280_temperature;BME280_humidity;BME280_pressure;Samples;Min_cycle;Max_cycle;Signal;HPM_P1;HPM_P2
2023/06/12 00:00:18;;;;;;;;;26.25;24.50;;;;;24.33;64.61;100859.38;2092605;28;46166;-62
2023/06/12 00:01:20;;;;;;;;;28.00;26.00;;;;;24.33;64.84;100857.53;2089782;28;46008;-62
2023/06/12 00:02:21;;;;;;;;;26.20;26.20;;;;;24.34;64.83;100859.25;2091923;28;45764;-62
2023/06/12 00:03:24;;;;;;;;;25.40;25.40;;;;;24.33;64.39;100857.53;2083887;28;47257;-60
2023/06/12 00:04:24;;;;;;;;;26.80;26.80;;;;;24.35;64.50;100854.69;2079138;28;46394;-62
2023/06/12 00:05:27;;;;;;;;;25.25;25.00;;;;;24.34;64.67;100851.09;2086246;28;46204;-62
2023/06/12 00:06:28;;;;;;;;;25.00;24.00;;;;;24.34;64.37;100861.09;2092409;28;45996;-61
2023/06/12 00:07:30;;;;;;;;;25.75;21.75;;;;;24.35;64.74;100849.25;2096218;28;46032;-61
2023/06/12 00:08:35;;;;;;;;;24.60;24.40;;;;;24.34;64.67;100852.97;2099464;28;45277;-60
2023/06/12 00:09:35;;;;;;;;;22.80;22.80;;;;;24.32;64.42;100854.94;2099692;28;46344;-61
2023/06/12 00:10:35;;;;;;;;;23.00;22.00;;;;;24.32;64.55;100855.78;2091477;28;47035;-60
2023/06/12 00:11:39;;;;;;;;;24.00;24.00;;;;;24.31;64.68;100853.19;2092006;28;46262;-62
2023/06/12 00:12:40;;;;;;;;;26.60;25.60;;;;;24.31;64.84;100855.91;2089318;28;46151;-62
2023/06/12 00:13:42;;;;;;;;;22.75;21.75;;;;;24.29;64.29;100850.59;2093424;28;46720;-61
2023/06/12 00:14:42;;;;;;;;;25.40;25.00;;;;;24.29;64.43;100849.72;2091153;28;46023;-61
2023/06/12 00:15:42;;;;;;;;;26.25;24.75;;;;;24.27;64.35;100852.56;2094030;28;46274;-62
2023/06/12 00:16:43;;;;;;;;;26.50;24.25;;;;;24.26;64.07;100853.50;2091479;28;45345;-62
2023/06/12 00:17:44;;;;;;;;;23.40;23.40;;;;;24.24;64.23;100857.31;2093023;28;46989;-63
2023/06/12 00:18:45;;;;;;;;;22.50;22.50;;;;;24.22;64.28;100848.44;2093383;28;45564;-60
2023/06/12 00:19:46;;;;;;;;;21.80;20.60;;;;;24.20;64.57;100855.84;2089741;28;46809;-61
2023/06/12 00:20:46;;;;;;;;;21.75;21.50;;;;;24.19;64.52;100852.25;2088710;28;45488;-60
2023/06/12 00:21:47;;;;;;;;;20.25;20.25;;;;;24.16;64.46;100847.09;2091929;28;45065;-60
2023/06/12 00:22:47;;;;;;;;;19.80;18.40;;;;;24.16;64.63;100848.94;2091984;28;46445;-60
2023/06/12 00:23:48;;;;;;;;;23.25;22.00;;;;;24.15;64.82;100855.34;2091771;28;46762;-62
2023/06/12 00:24:48;;;;;;;;;22.75;22.75;;;;;24.14;65.06;100850.88;2090124;28;45567;-62
2023/06/12 00:25:48;;;;;;;;;22.25;22.00;;;;;24.13;64.86;100854.56;2087705;28;47238;-60
2023/06/12 00:26:48;;;;;;;;;21.75;20.75;;;;;24.12;65.04;100856.41;2091505;28;45206;-60
2023/06/12 00:27:49;;;;;;;;;21.50;21.50;;;;;24.10;65.19;100844.81;2090593;28;46043;-61
2023/06/12 00:28:49;;;;;;;;;19.25;19.25;;;;;24.09;65.34;100848.50;2090089;28;45661;-59
2023/06/12 00:29:49;;;;;;;;;21.00;21.00;;;;;24.08;65.45;100852.22;2089916;28;45758;-61
2023/06/12 00:30:50;;;;;;;;;17.00;17.00;;;;;24.07;65.81;100847.78;2090639;28;45490;-60
2023/06/12 00:31:50;;;;;;;;;21.75;21.00;;;;;24.07;65.59;100856.78;2090820;28;45840;-60
2023/06/12 00:32:50;;;;;;;;;20.75;20.25;;;;;24.07;65.62;100845.94;2089964;28;46819;-62
2023/06/12 00:33:51;;;;;;;;;20.75;20.75;;;;;24.08;65.55;100846.78;2089459;28;45582;-60
2023/06/12 00:34:51;;;;;;;;;21.25;20.50;;;;;24.07;65.70;100854.06;2091113;28;45950;-62
2023/06/12 00:35:52;;;;;;;;;22.75;21.75;;;;;24.06;65.80;100844.19;2096995;28;45661;-60
2023/06/12 00:36:52;;;;;;;;;20.50;20.50;;;;;24.05;65.80;100841.59;2092741;28;45491;-62
2023/06/12 00:37:53;;;;;;;;;22.00;21.25;;;;;24.04;65.39;100834.47;2094179;28;45452;-61
2023/06/12 00:38:53;;;;;;;;;20.50;20.50;;;;;24.04;65.73;100842.59;2092567;28;45735;-60
2023/06/12 00:39:53;;;;;;;;;21.75;20.00;;;;;24.04;65.43;100840.75;2091772;28;46127;-60
2023/06/12 00:40:54;;;;;;;;;21.25;20.50;;;;;24.03;65.10;100840.88;2097181;28;46155;-60
2023/06/12 00:41:54;;;;;;;;;18.75;18.75;;;;;24.02;65.40;100841.84;2092928;28;45549;-59
2023/06/12 00:42:54;;;;;;;;;21.75;20.75;;;;;24.00;65.13;100828.38;2094372;28;45717;-60
2023/06/12 00:43:55;;;;;;;;;17.00;16.75;;;;;24.01;65.32;100837.38;2094738;28;45523;-61
2023/06/12 00:44:55;;;;;;;;;20.25;19.00;;;;;23.98;65.08;100834.91;2094723;28;46504;-61
2023/06/12 00:45:56;;;;;;;;;20.50;19.50;;;;;23.97;65.61;100830.47;2088225;28;46858;-60
2023/06/12 00:46:56;;;;;;;;;19.00;18.75;;;;;23.97;65.38;100841.31;2091856;28;47159;-61
2023/06/12 00:47:59;;;;;;;;;20.25;19.50;;;;;23.96;65.39;100840.44;2083141;28;45932;-62
2023/06/12 00:49:01;;;;;;;;;17.20;16.80;;;;;23.93;65.09;100837.97;2094355;28;45804;-61
2023/06/12 00:50:02;;;;;;;;;22.40;20.40;;;;;23.92;64.83;100838.97;2092869;28;45771;-61
2023/06/12 00:51:02;;;;;;;;;20.25;19.00;;;;;23.90;65.03;100837.34;2095391;28;47601;-61
2023/06/12 00:52:04;;;;;;;;;16.75;16.75;;;;;23.89;65.30;100839.19;2091459;28;46003;-62
2023/06/12 00:53:04;;;;;;;;;17.00;17.00;;;;;23.88;65.32;100836.56;2092966;28;46943;-63
2023/06/12 00:54:05;;;;;;;;;17.25;17.25;;;;;23.88;65.23;100832.00;2096057;28;46233;-62
2023/06/12 00:55:06;;;;;;;;;17.50;17.50;;;;;23.88;64.93;100829.31;2093033;28;45707;-62
2023/06/12 00:56:06;;;;;;;;;19.00;19.00;;;;;23.88;65.45;100836.56;2090155;28;45581;-62
2023/06/12 00:57:07;;;;;;;;;17.25;16.25;;;;;23.86;65.32;100835.84;2089609;28;45983;-63
2023/06/12 00:58:08;;;;;;;;;16.80;16.80;;;;;23.87;65.05;100834.84;2095013;28;45853;-61
2023/06/12 00:59:09;;;;;;;;;15.50;14.75;;;;;23.87;65.16;100845.69;2088248;28;45385;-63
2023/06/12 01:00:11;;;;;;;;;14.80;13.80;;;;;23.87;65.19;100838.41;2089703;28;46074;-60
2023/06/12 01:01:14;;;;;;;;;17.00;15.60;;;;;23.87;64.81;100834.84;2097695;28;46167;-62
2023/06/12 01:02:14;;;;;;;;;17.00;14.80;;;;;23.88;64.91;100840.16;2089115;28;46268;-61
2023/06/12 01:03:16;;;;;;;;;17.25;17.00;;;;;23.88;65.29;100845.56;2089007;28;45881;-61
2023/06/12 01:04:17;;;;;;;;;16.00;16.00;;;;;23.90;65.22;100840.06;2096831;28;46853;-61
2023/06/12 01:05:28;;;;;;;;;13.20;13.20;;;;;23.90;64.90;100835.50;2093013;28;45800;-61
2023/06/12 01:06:53;;;;;;;;;15.60;15.60;;;;;23.92;64.67;100841.66;2086239;28;45222;-62
2023/06/12 01:08:17;;;;;;;;;17.20;16.00;;;;;23.93;64.79;100837.97;2084034;28;47045;-62
2023/06/12 01:09:35;;;;;;;;;16.00;16.00;;;;;23.92;64.79;100836.25;2080742;28;46647;-59
2023/06/12 01:10:41;;;;;;;;;17.20;17.20;;;;;23.91;64.40;100834.53;2093531;28;45233;-62
2023/06/12 01:11:42;;;;;;;;;16.00;14.60;;;;;23.88;64.48;100832.00;2091153;28;45970;-62
2023/06/12 01:12:43;;;;;;;;;16.50;16.00;;;;;23.86;64.30;100833.97;2095278;28;45939;-62
2023/06/12 01:13:44;;;;;;;;;14.60;14.60;;;;;23.84;64.39;100835.09;2094227;28;46686;-61
2023/06/12 01:14:47;;;;;;;;;14.00;14.00;;;;;23.82;64.19;100829.78;2093421;28;45641;-60
2023/06/12 01:15:48;;;;;;;;;16.40;15.40;;;;;23.81;64.44;100832.63;2096091;28;46706;-61
2023/06/12 01:16:49;;;;;;;;;15.60;15.60;;;;;23.78;64.51;100834.59;2092670;28;45851;-60
2023/06/12 01:17:49;;;;;;;;;16.00;15.00;;;;;23.76;64.14;100833.84;2095227;28;45933;-61
2023/06/12 01:18:49;;;;;;;;;13.25;13.25;;;;;23.75;64.15;100839.34;2091446;28;46670;-61
2023/06/12 01:19:50;;;;;;;;;15.50;15.50;;;;;23.71;63.86;100829.72;2089280;28;46247;-61
2023/06/12 01:20:53;;;;;;;;;15.25;15.25;;;;;23.70;64.17;100830.69;2096677;28;45655;-61
2023/06/12 01:21:59;;;;;;;;;16.80;15.00;;;;;23.69;64.37;100837.97;2092245;28;45763;-61
2023/06/12 01:23:09;;;;;;;;;14.00;12.20;;;;;23.67;64.30;100826.38;2090685;28;46600;-62
2023/06/12 01:24:28;;;;;;;;;16.20;14.00;;;;;23.69;64.67;100834.41;2089041;28;46527;-60
2023/06/12 01:25:37;;;;;;;;;11.40;11.40;;;;;23.68;64.98;100832.66;2089717;28;46707;-63
2023/06/12 01:26:49;;;;;;;;;14.40;14.40;;;;;23.67;64.79;100828.22;2092495;28;45583;-63
2023/06/12 01:28:22;;;;;;;;;12.60;12.40;;;;;23.65;64.73;100827.47;2095594;28;46453;-63
2023/06/12 01:29:22;;;;;;;;;15.60;15.00;;;;;23.64;64.48;100825.75;2082205;28;45966;-62
2023/06/12 01:30:42;;;;;;;;;14.75;14.50;;;;;23.62;64.86;100824.97;2091216;28;46340;-62
2023/06/12 01:32:03;;;;;;;;;10.80;10.80;;;;;23.61;64.49;100821.41;2090909;28;45815;-61
2023/06/12 01:33:07;;;;;;;;;14.00;14.00;;;;;23.60;64.63;100822.38;2090187;28;45718;-62
2023/06/12 01:34:24;;;;;;;;;13.60;13.40;;;;;23.60;64.55;100822.38;2094579;28;46135;-62
2023/06/12 01:35:30;;;;;;;;;15.40;15.20;;;;;23.60;64.43;100822.38;2091951;28;46386;-62
2023/06/12 01:36:36;;;;;;;;;16.20;15.20;;;;;23.59;64.41;100820.66;2092111;28;45815;-63
2023/06/12 01:37:44;;;;;;;;;15.60;14.20;;;;;23.58;64.45;100813.50;2083063;28;46549;-60
2023/06/12 01:38:50;;;;;;;;;12.80;12.80;;;;;23.58;64.26;100818.94;2093829;28;46813;-62
2023/06/12 01:39:58;;;;;;;;;13.80;13.80;;;;;23.57;64.64;100819.88;2089729;28;46497;-63
2023/06/12 01:40:59;;;;;;;;;15.80;15.80;;;;;23.58;64.66;100827.06;2087938;28;45159;-62
2023/06/12 01:42:00;;;;;;;;;14.25;14.25;;;;;23.57;64.58;100817.16;2090998;28;46346;-62
2023/06/12 01:43:00;;;;;;;;;16.75;16.75;;;;;23.58;64.55;100818.06;2088721;28;45544;-60
2023/06/12 01:44:09;;;;;;;;;15.75;14.75;;;;;23.57;64.60;100813.59;2091612;28;46293;-62
2023/06/12 01:45:10;;;;;;;;;13.60;13.60;;;;;23.56;64.71;100812.75;2091318;28;48829;-62
2023/06/12 01:46:10;;;;;;;;;15.00;15.00;;;;;23.57;64.54;100816.31;2089976;28;46125;-63
2023/06/12 01:47:10;;;;;;;;;17.25;16.00;;;;;23.56;64.55;100817.28;2090813;28;45841;-60
2023/06/12 01:48:10;;;;;;;;;17.75;17.75;;;;;23.55;64.87;100812.84;2088732;28;46589;-62
2023/06/12 01:49:11;;;;;;;;;14.75;14.75;;;;;23.54;65.19;100819.25;2089960;28;46868;-63
2023/06/12 01:50:13;;;;;;;;;16.00;16.00;;;;;23.53;64.92;100818.38;2091090;28;46173;-62
2023/06/12 01:51:13;;;;;;;;;16.20;16.20;;;;;23.52;65.00;100818.50;2089304;28;45302;-62
2023/06/12 01:52:14;;;;;;;;;16.50;16.50;;;;;23.50;64.98;100815.88;2090182;28;46935;-62
2023/06/12 01:53:15;;;;;;;;;9.25;9.25;;;;;23.50;65.02;100815.88;2088884;28;46604;-62
2023/06/12 01:54:15;;;;;;;;;17.80;17.40;;;;;23.51;65.06;100819.50;2088432;28;45741;-62
2023/06/12 01:55:19;;;;;;;;;15.75;14.75;;;;;23.51;65.17;100823.06;2091505;28;45762;-63
2023/06/12 01:56:24;;;;;;;;;16.40;16.40;;;;;23.51;65.17;100820.34;2089744;28;45123;-62
2023/06/12 01:57:25;;;;;;;;;17.80;17.00;;;;;23.52;65.12;100822.06;2091095;28;46359;-60
2023/06/12 01:58:26;;;;;;;;;19.00;17.40;;;;;23.51;64.89;100820.34;2092621;28;46368;-61
2023/06/12 01:59:26;;;;;;;;;16.75;16.75;;;;;23.51;64.95;100825.78;2087693;28;45476;-63
2023/06/12 02:00:26;;;;;;;;;19.00;17.75;;;;;23.49;64.85;100828.56;2091493;28;46366;-62
2023/06/12 02:01:29;;;;;;;;;18.25;18.00;;;;;23.48;64.71;100829.53;2090452;28;45700;-62
2023/06/12 02:02:32;;;;;;;;;15.20;14.60;;;;;23.47;64.93;100829.66;2088791;28;46719;-61
2023/06/12 02:03:36;;;;;;;;;13.80;13.80;;;;;23.46;64.50;100830.63;2092168;28;45403;-60
2023/06/12 02:04:37;;;;;;;;;17.20;15.80;;;;;23.44;64.29;100832.59;2094600;28;47115;-63
2023/06/12 02:05:37;;;;;;;;;15.50;14.00;;;;;23.42;64.58;100823.72;2093858;28;47970;-62
2023/06/12 02:06:37;;;;;;;;;17.50;17.50;;;;;23.39;64.51;100827.53;2091280;28;45673;-62
2023/06/12 02:07:38;;;;;;;;;16.75;15.50;;;;;23.38;64.56;100825.81;2094501;28;46499;-62
2023/06/12 02:08:38;;;;;;;;;16.00;16.00;;;;;23.37;64.75;100834.00;2092704;28;46265;-62
2023/06/12 02:09:39;;;;;;;;;15.75;15.75;;;;;23.36;64.82;100827.72;2092093;28;46799;-62
2023/06/12 02:10:39;;;;;;;;;15.25;15.00;;;;;23.34;64.94;100832.41;2086792;28;47280;-61
2023/06/12 02:11:40;;;;;;;;;14.00;14.00;;;;;23.34;64.90;100832.41;2092184;28;46430;-61
2023/06/12 02:12:40;;;;;;;;;17.00;16.50;;;;;23.34;65.06;100831.53;2088177;28;47058;-59
2023/06/12 02:13:41;;;;;;;;;20.50;19.75;;;;;23.33;64.99;100833.38;2092511;28;46229;-62
2023/06/12 02:14:41;;;;;;;;;17.00;17.00;;;;;23.34;65.08;100839.66;2090602;28;46467;-62
2023/06/12 02:15:41;;;;;;;;;13.75;13.00;;;;;23.32;64.94;100833.50;2091970;28;45446;-62
2023/06/12 02:16:45;;;;;;;;;17.75;15.25;;;;;23.31;65.18;100838.06;2089502;28;46187;-60
2023/06/12 02:17:45;;;;;;;;;18.80;17.40;;;;;23.30;65.20;100838.16;2091685;28;46033;-60
2023/06/12 02:18:46;;;;;;;;;16.00;16.00;;;;;23.28;64.93;100832.88;2091896;28;46004;-63
2023/06/12 02:19:47;;;;;;;;;17.20;16.40;;;;;23.28;64.95;100841.00;2089894;28;45297;-63
2023/06/12 02:20:49;;;;;;;;;16.50;16.50;;;;;23.27;64.99;100843.81;2090774;28;45736;-61
2023/06/12 02:21:49;;;;;;;;;15.00;15.00;;;;;23.26;64.85;100836.66;2092293;28;46130;-63
2023/06/12 02:22:49;;;;;;;;;16.00;16.00;;;;;23.25;65.05;100835.81;2091370;28;46624;-61
2023/06/12 02:23:50;;;;;;;;;16.50;15.75;;;;;23.24;65.09;100844.00;2094200;28;46708;-62
2023/06/12 02:24:50;;;;;;;;;16.00;16.00;;;;;23.23;65.22;100843.16;2092619;28;46402;-63
2023/06/12 02:25:50;;;;;;;;;13.50;13.50;;;;;23.24;65.24;100846.72;2092192;28;46370;-62
2023/06/12 02:26:51;;;;;;;;;19.75;18.50;;;;;23.23;65.30;100847.69;2092510;28;46427;-60
2023/06/12 02:27:51;;;;;;;;;13.50;13.00;;;;;23.20;65.29;100844.25;2092288;28;45538;-61
2023/06/12 02:29:08;;;;;;;;;14.75;14.75;;;;;23.20;65.12;100846.09;2090707;28;45828;-61
2023/06/12 02:30:09;;;;;;;;;14.00;13.00;;;;;23.17;64.96;100846.31;2091936;28;46841;-63
2023/06/12 02:31:11;;;;;;;;;15.00;14.60;;;;;23.15;64.96;100846.44;2091126;28;46494;-61
2023/06/12 02:32:12;;;;;;;;;14.80;14.60;;;;;23.14;65.15;100849.25;2091330;28;46566;-59
2023/06/12 02:33:13;;;;;;;;;15.80;14.20;;;;;23.14;64.94;100849.25;2091583;28;46447;-61
2023/06/12 02:34:13;;;;;;;;;15.25;13.00;;;;;23.14;64.82;100854.66;2090470;28;46831;-60
2023/06/12 02:35:13;;;;;;;;;14.00;14.00;;;;;23.13;64.83;100851.09;2094871;28;46676;-59
2023/06/12 02:36:14;;;;;;;;;13.75;13.75;;;;;23.12;64.72;100854.78;2092202;28;46140;-60
2023/06/12 02:37:14;;;;;;;;;16.25;16.25;;;;;23.12;64.85;100849.38;2096261;28;45364;-60
2023/06/12 02:38:14;;;;;;;;;16.00;16.00;;;;;23.11;64.38;100853.00;2092449;28;45818;-60
2023/06/12 02:39:15;;;;;;;;;15.75;15.00;;;;;23.09;64.39;100849.56;2096255;28;45438;-59
2023/06/12 02:40:15;;;;;;;;;14.00;14.00;;;;;23.07;64.60;100845.25;2094851;28;45513;-60
2023/06/12 02:41:16;;;;;;;;;14.75;14.00;;;;;23.07;64.36;100851.50;2093849;28;45062;-60
2023/06/12 02:42:16;;;;;;;;;16.50;15.25;;;;;23.06;64.74;100847.09;2095121;28;46014;-61
2023/06/12 02:43:17;;;;;;;;;13.50;12.75;;;;;23.06;64.44;100851.63;2092018;28;45482;-60
2023/06/12 02:44:17;;;;;;;;;15.50;15.50;;;;;23.05;64.15;100845.34;2094791;28;46649;-61
2023/06/12 02:45:17;;;;;;;;;13.75;13.50;;;;;23.05;64.44;100847.19;2094824;28;45791;-61
2023/06/12 02:46:18;;;;;;;;;14.50;13.00;;;;;23.05;64.43;100844.50;2092725;28;46513;-60
2023/06/12 02:47:18;;;;;;;;;15.00;15.00;;;;;23.04;64.53;100840.91;2093674;28;46160;-62
2023/06/12 02:48:18;;;;;;;;;13.25;13.25;;;;;23.04;64.33;100843.63;2092564;28;46154;-61
2023/06/12 02:49:20;;;;;;;;;11.25;11.25;;;;;23.03;64.17;100843.75;2093254;28;46674;-61
2023/06/12 02:50:21;;;;;;;;;15.00;13.20;;;;;23.03;63.96;100841.91;2092945;28;45778;-61
2023/06/12 02:51:21;;;;;;;;;17.25;16.50;;;;;23.02;64.44;100845.59;2091106;28;46330;-61
2023/06/12 02:52:22;;;;;;;;;20.25;16.00;;;;;23.02;64.15;100833.88;2093043;28;45974;-61
2023/06/12 02:53:22;;;;;;;;;12.75;11.75;;;;;23.02;64.31;100844.72;2092096;28;46541;-61
2023/06/12 02:54:25;;;;;;;;;13.75;13.75;;;;;23.01;64.18;100837.56;2092102;28;45986;-61
2023/06/12 02:55:25;;;;;;;;;18.60;17.00;;;;;23.01;64.20;100834.88;2094029;28;45797;-60
2023/06/12 02:56:26;;;;;;;;;14.75;13.75;;;;;23.00;64.46;100830.44;2090966;28;46265;-61
2023/06/12 02:57:26;;;;;;;;;13.00;12.25;;;;;23.00;65.00;100831.28;2088209;28;46684;-61
2023/06/12 02:58:27;;;;;;;;;18.75;17.75;;;;;23.00;64.47;100828.59;2095195;28;46529;-62
2023/06/12 02:59:27;;;;;;;;;15.75;14.75;;;;;23.02;64.35;100831.19;2091645;28;45223;-61
2023/06/12 03:00:28;;;;;;;;;15.25;15.25;;;;;23.01;64.31;100819.50;2095252;28;45213;-62
2023/06/12 03:01:29;;;;;;;;;14.00;13.75;;;;;23.02;64.19;100821.22;2113169;27;45490;-61
2023/06/12 03:02:29;;;;;;;;;14.80;14.20;;;;;23.03;64.55;100825.66;2113568;27;46192;-64
2023/06/12 03:03:30;;;;;;;;;17.00;15.50;;;;;23.02;64.23;100825.78;2094328;28;45713;-63
2023/06/12 03:04:32;;;;;;;;;13.00;13.00;;;;;23.03;64.23;100828.34;2097690;28;45231;-65
2023/06/12 03:05:34;;;;;;;;;15.80;15.80;;;;;23.02;63.95;100823.06;2095549;28;45632;-63
2023/06/12 03:06:34;;;;;;;;;14.40;14.40;;;;;23.00;64.07;100827.72;2095603;28;46068;-61
2023/06/12 03:07:36;;;;;;;;;13.75;13.75;;;;;23.00;64.21;100825.03;2098759;28;46408;-63
2023/06/12 03:08:37;;;;;;;;;15.20;15.00;;;;;22.99;63.97;100823.25;2094251;28;46532;-60
2023/06/12 03:09:38;;;;;;;;;19.50;16.75;;;;;22.98;64.14;100824.22;2097338;28;45649;-63
2023/06/12 03:10:39;;;;;;;;;16.60;16.60;;;;;22.97;64.03;100819.81;2094010;28;45877;-61
2023/06/12 03:11:39;;;;;;;;;17.00;16.00;;;;;22.97;64.47;100827.91;2094082;28;46559;-61
2023/06/12 03:12:40;;;;;;;;;15.50;15.00;;;;;22.97;64.29;100826.06;2097825;28;46587;-63
2023/06/12 03:13:40;;;;;;;;;16.75;14.75;;;;;22.98;64.53;100826.94;2107536;27;45650;-63
2023/06/12 03:14:42;;;;;;;;;14.50;13.50;;;;;22.98;64.45;100827.81;2113670;27;45725;-62
2023/06/12 03:15:42;;;;;;;;;16.00;16.00;;;;;22.98;64.42;100829.66;2092618;28;45699;-62
2023/06/12 03:16:42;;;;;;;;;14.25;14.25;;;;;22.98;63.96;100827.81;2095082;28;45899;-64
2023/06/12 03:17:43;;;;;;;;;15.25;12.75;;;;;22.97;64.19;100823.38;2091850;28;46777;-61
2023/06/12 03:18:43;;;;;;;;;14.50;13.25;;;;;22.96;64.23;100832.47;2094996;28;45870;-62
2023/06/12 03:19:44;;;;;;;;;14.75;14.00;;;;;22.95;63.95;100828.03;2097894;28;45701;-61
2023/06/12 03:20:45;;;;;;;;;17.20;15.00;;;;;22.95;64.05;100833.44;2092151;28;45616;-61
2023/06/12 03:21:45;;;;;;;;;13.50;12.50;;;;;22.95;64.16;100827.16;2099396;28;45271;-62
2023/06/12 03:22:46;;;;;;;;;13.00;13.00;;;;;22.94;64.13;100829.00;2107310;27;46216;-62
2023/06/12 03:23:46;;;;;;;;;16.00;16.00;;;;;22.95;64.68;100833.44;2094247;28;46159;-62
2023/06/12 03:24:46;;;;;;;;;14.00;12.75;;;;;22.95;64.49;100828.03;2090909;28;46868;-63
2023/06/12 03:25:47;;;;;;;;;13.50;13.50;;;;;22.98;64.60;100832.34;2096047;28;45590;-62
2023/06/12 03:26:48;;;;;;;;;15.40;15.40;;;;;22.97;64.01;100826.06;2093330;28;45678;-62
2023/06/12 03:27:49;;;;;;;;;15.00;15.00;;;;;22.99;64.00;100832.25;2097425;28;45576;-61
2023/06/12 03:28:49;;;;;;;;;16.40;14.60;;;;;22.98;63.92;100833.22;2094803;28;45712;-62
2023/06/12 03:29:50;;;;;;;;;14.50;12.75;;;;;22.99;63.83;100834.09;2094104;28;46363;-62
2023/06/12 03:30:50;;;;;;;;;13.80;11.80;;;;;22.98;63.87;100838.63;2096967;28;45236;-62
2023/06/12 03:31:53;;;;;;;;;14.25;14.25;;;;;22.97;63.70;100836.91;2091308;28;46033;-62
2023/06/12 03:32:56;;;;;;;;;14.00;12.00;;;;;22.97;63.78;100838.75;2097488;28;45526;-60
2023/06/12 03:33:56;;;;;;;;;16.20;15.60;;;;;22.96;64.01;100843.28;2095379;28;45254;-61
2023/06/12 03:34:56;;;;;;;;;17.50;17.50;;;;;22.96;63.96;100845.13;2097903;28;46237;-60
2023/06/12 03:35:57;;;;;;;;;15.25;14.50;;;;;22.95;64.07;100841.56;2096664;28;45967;-62
2023/06/12 03:36:57;;;;;;;;;15.25;14.50;;;;;22.95;64.02;100838.00;2103106;28;47472;-61
2023/06/12 03:37:58;;;;;;;;;16.50;16.50;;;;;22.94;63.76;100844.38;2091773;28;46550;-61
2023/06/12 03:38:58;;;;;;;;;14.50;14.25;;;;;22.93;63.98;100839.94;2094170;28;45820;-61
2023/06/12 03:39:58;;;;;;;;;15.75;14.75;;;;;22.93;64.00;100845.38;2101703;28;46848;-59
2023/06/12 03:40:59;;;;;;;;;13.50;13.50;;;;;22.91;64.18;100842.78;2101676;28;45764;-60
2023/06/12 03:41:59;;;;;;;;;17.25;16.00;;;;;22.89;64.07;100842.88;2101709;28;45411;-61
2023/06/12 03:42:59;;;;;;;;;16.75;14.00;;;;;22.90;63.83;100843.75;2100877;28;46364;-61
2023/06/12 03:44:00;;;;;;;;;13.75;13.75;;;;;22.89;64.06;100842.03;2104095;28;46416;-62
2023/06/12 03:45:00;;;;;;;;;11.00;10.00;;;;;22.88;64.32;100843.84;2100376;28;46822;-62
2023/06/12 03:46:00;;;;;;;;;14.25;14.00;;;;;22.88;64.44;100838.44;2101174;28;45561;-62
2023/06/12 03:47:01;;;;;;;;;16.00;16.00;;;;;22.89;64.39;100831.19;2102925;28;45719;-61
2023/06/12 03:48:01;;;;;;;;;14.75;14.25;;;;;22.89;64.31;100840.19;2099555;28;45910;-63
2023/06/12 03:49:03;;;;;;;;;17.75;16.50;;;;;22.89;64.57;100842.03;2103876;28;45459;-63
2023/06/12 03:50:03;;;;;;;;;17.40;17.20;;;;;22.89;64.46;100839.31;2102150;28;45687;-61
2023/06/12 03:51:04;;;;;;;;;16.75;16.75;;;;;22.88;64.70;100841.16;2109090;27;45867;-62
2023/06/12 03:52:04;;;;;;;;;18.50;18.50;;;;;22.88;64.45;100843.84;2104883;27;46291;-61
2023/06/12 03:53:05;;;;;;;;;17.50;17.25;;;;;22.88;64.81;100841.16;2099036;28;46400;-62
2023/06/12 03:54:06;;;;;;;;;17.00;16.25;;;;;22.88;64.45;100851.13;2101681;28;46237;-63
2023/06/12 03:55:06;;;;;;;;;16.20;15.60;;;;;22.88;64.79;100841.16;2102058;28;46647;-62
2023/06/12 03:56:07;;;;;;;;;17.00;17.00;;;;;22.88;64.88;100837.59;2099482;28;45813;-62
2023/06/12 03:57:08;;;;;;;;;17.00;16.20;;;;;22.88;64.74;100835.75;2100487;28;46552;-60
2023/06/12 03:58:08;;;;;;;;;16.50;16.00;;;;;22.89;64.81;100842.03;2100622;28;46261;-61
2023/06/12 03:59:08;;;;;;;;;15.25;15.00;;;;;22.89;64.72;100836.59;2097781;28;45239;-61
2023/06/12 04:00:09;;;;;;;;;17.50;17.25;;;;;22.90;64.79;100839.19;2101181;28;45931;-60
2023/06/12 04:01:10;;;;;;;;;14.80;14.80;;;;;22.92;64.97;100839.09;2087758;28;46213;-60
2023/06/12 04:02:10;;;;;;;;;18.50;17.50;;;;;22.92;65.06;100836.38;2091439;28;46282;-63
2023/06/12 04:03:14;;;;;;;;;17.50;14.75;;;;;22.94;65.01;100833.56;2090698;28;46866;-61
2023/06/12 04:04:15;;;;;;;;;16.00;13.80;;;;;22.94;65.08;100831.72;2096187;28;45660;-62
2023/06/12 04:05:15;;;;;;;;;16.00;15.20;;;;;22.94;65.21;100837.13;2092159;28;46290;-60
2023/06/12 04:06:15;;;;;;;;;15.25;15.25;;;;;22.95;65.13;100843.41;2089694;28;46253;-61
2023/06/12 04:07:16;;;;;;;;;19.50;17.50;;;;;22.94;65.06;100842.53;2087996;28;46305;-63
2023/06/12 04:08:16;;;;;;;;;15.75;15.75;;;;;22.94;65.06;100837.13;2091089;28;48093;-60
2023/06/12 04:09:17;;;;;;;;;13.25;13.00;;;;;22.95;65.08;100844.28;2088407;28;45776;-63
2023/06/12 04:10:18;;;;;;;;;15.25;15.25;;;;;22.96;65.20;100846.00;2092743;28;47545;-60
2023/06/12 04:11:18;;;;;;;;;16.75;16.75;;;;;22.98;65.09;100835.06;2091756;28;46823;-61
2023/06/12 04:12:19;;;;;;;;;15.00;14.75;;;;;22.98;64.91;100840.47;2089175;28;45483;-61
2023/06/12 04:13:19;;;;;;;;;14.75;14.25;;;;;22.98;64.85;100835.94;2091495;28;46460;-62
2023/06/12 04:14:20;;;;;;;;;15.50;14.25;;;;;22.99;64.86;100834.09;2090230;28;46218;-61
2023/06/12 04:15:21;;;;;;;;;15.25;14.25;;;;;22.99;64.88;100837.66;2093012;28;45909;-61
2023/06/12 04:16:21;;;;;;;;;17.60;16.60;;;;;22.98;64.51;100841.34;2092760;28;46571;-60
2023/06/12 04:17:22;;;;;;;;;14.00;13.00;;;;;22.98;64.44;100838.63;2090090;28;45550;-61
2023/06/12 04:18:23;;;;;;;;;15.25;14.25;;;;;22.99;64.17;100842.19;2092116;28;46335;-62
2023/06/12 04:19:24;;;;;;;;;16.20;15.20;;;;;22.98;64.24;100830.50;2089319;28;47075;-62
2023/06/12 04:20:29;;;;;;;;;21.00;18.50;;;;;22.97;63.97;100839.63;2092408;28;45213;-59
2023/06/12 04:21:33;;;;;;;;;15.60;14.40;;;;;22.97;64.08;100833.34;2093804;28;45166;-63
2023/06/12 04:22:35;;;;;;;;;12.60;12.40;;;;;22.96;63.97;100831.59;2095461;28;46869;-61
2023/06/12 04:23:37;;;;;;;;;15.20;15.20;;;;;22.94;64.26;100831.72;2092929;28;46831;-58
2023/06/12 04:24:38;;;;;;;;;11.60;11.60;;;;;22.93;64.33;100829.13;2095436;28;46310;-59
2023/06/12 04:25:38;;;;;;;;;16.00;15.60;;;;;22.95;64.42;100830.75;2094261;28;45913;-60
2023/06/12 04:26:40;;;;;;;;;14.75;14.75;;;;;22.96;64.58;100826.19;2092751;28;45574;-60
2023/06/12 04:27:42;;;;;;;;;13.40;12.20;;;;;23.00;64.18;100827.72;2087970;28;45840;-60
2023/06/12 04:28:43;;;;;;;;;14.60;13.80;;;;;23.00;64.33;100831.28;2089174;28;46562;-59
2023/06/12 04:29:43;;;;;;;;;15.75;14.75;;;;;23.02;64.43;100831.19;2092955;28;45523;-61
2023/06/12 04:30:45;;;;;;;;;16.50;16.50;;;;;23.03;64.44;100830.19;2094828;28;45584;-59
2023/06/12 04:31:45;;;;;;;;;17.80;17.80;;;;;23.02;64.52;100831.19;2088360;28;45541;-62
2023/06/12 04:32:46;;;;;;;;;18.75;18.75;;;;;23.02;64.05;100826.63;2087849;28;45676;-60
2023/06/12 04:33:48;;;;;;;;;14.00;12.00;;;;;23.02;64.26;100829.34;2094238;28;46751;-60
2023/06/12 04:34:49;;;;;;;;;12.00;12.00;;;;;23.01;64.37;100826.75;2089893;28;45803;-61
2023/06/12 04:35:50;;;;;;;;;13.20;13.20;;;;;23.00;64.72;100828.59;2096249;28;45753;-62
2023/06/12 04:36:52;;;;;;;;;14.60;14.60;;;;;23.00;64.41;100825.03;2095798;28;46105;-62
2023/06/12 04:37:53;;;;;;;;;17.80;15.40;;;;;23.00;64.76;100830.44;2094473;28;45700;-59
2023/06/12 04:38:53;;;;;;;;;20.25;18.75;;;;;22.97;65.00;100827.91;2095770;28;46613;-60
2023/06/12 04:39:55;;;;;;;;;15.75;15.75;;;;;22.98;64.81;100826.94;2093576;28;45186;-60
2023/06/12 04:40:58;;;;;;;;;16.00;14.20;;;;;22.98;64.94;100829.66;2096248;28;45356;-60